createdAt,value
2023-04-12T00:00:55.736Z,93849.44
2023-04-12T00:01:52.515Z,93827.06
2023-04-12T00:02:54.414Z,93795.41
2023-04-12T00:03:51.682Z,93850.94
2023-04-12T00:04:55.442Z,93820.25
2023-04-12T00:05:54.818Z,93817.59
2023-04-12T00:06:54.452Z,93838.97
2023-04-12T00:07:53.254Z,93836.72
2023-04-12T00:08:50.503Z,93805.38
2023-04-12T00:09:47.338Z,93775.56
2023-04-12T00:10:44.211Z,93781.84
2023-04-12T00:11:41.070Z,93828.91
2023-04-12T00:12:38.004Z,93831.75
2023-04-12T00:13:34.765Z,93783.59
2023-04-12T00:14:31.576Z,93807.88
2023-04-12T00:15:28.342Z,93835.84
2023-04-12T00:16:25.273Z,93824.97
2023-04-12T00:17:22.240Z,93809.53
2023-04-12T00:18:19.024Z,93830.59
2023-04-12T00:19:17.100Z,93783.16
2023-04-12T00:20:16.658Z,93721.03
2023-04-12T00:21:13.643Z,93822.78
2023-04-12T00:22:11.913Z,93776.00
2023-04-12T00:23:09.908Z,93780.53
2023-04-12T00:24:07.024Z,93824.19
2023-04-12T00:25:03.920Z,93823.72
2023-04-12T00:26:00.962Z,93824.41
2023-04-12T00:26:58.319Z,93811.47
2023-04-12T00:27:55.090Z,93820.38
2023-04-12T00:28:52.163Z,93821.66
2023-04-12T00:29:48.955Z,93831.13
2023-04-12T00:30:46.113Z,93814.63
2023-04-12T00:31:43.033Z,93817.25
2023-04-12T00:32:41.133Z,93815.81
2023-04-12T00:33:37.916Z,93763.19
2023-04-12T00:34:34.679Z,93813.31
2023-04-12T00:35:31.501Z,93817.72
2023-04-12T00:36:28.378Z,93796.94
2023-04-12T00:37:25.501Z,93790.53
2023-04-12T00:38:22.266Z,93789.00
2023-04-12T00:39:19.070Z,93822.94
2023-04-12T00:40:16.008Z,93734.22
2023-04-12T00:41:13.818Z,93819.13
2023-04-12T00:42:10.532Z,93761.66
2023-04-12T00:43:07.933Z,93820.59
2023-04-12T00:44:04.826Z,93739.13
2023-04-12T00:45:01.700Z,93722.09
2023-04-12T00:45:58.691Z,93774.19
2023-04-12T00:46:55.453Z,93817.56
2023-04-12T00:47:52.272Z,93819.50
2023-04-12T00:48:49.950Z,93815.06
2023-04-12T00:50:09.116Z,93817.19
2023-04-12T00:51:09.318Z,93782.19
2023-04-12T00:52:10.126Z,93816.81
2023-04-12T00:53:09.620Z,93809.84
2023-04-12T00:54:07.287Z,93791.59
2023-04-12T00:55:05.449Z,93817.91
2023-04-12T00:56:04.311Z,93813.47
2023-04-12T00:57:02.046Z,93812.56
2023-04-12T00:57:59.450Z,93814.53
2023-04-12T00:58:56.931Z,93771.41
2023-04-12T00:59:53.650Z,93768.28
2023-04-12T01:00:52.990Z,93796.34
2023-04-12T01:01:50.084Z,93808.16
2023-04-12T01:02:48.382Z,93707.34
2023-04-12T01:03:46.618Z,93807.59
2023-04-12T01:04:44.191Z,93755.88
2023-04-12T01:06:13.991Z,93782.00
2023-04-12T01:07:25.307Z,93813.16
2023-04-12T01:08:41.439Z,93814.06
2023-04-12T01:10:04.082Z,93768.81
2023-04-12T01:11:07.706Z,93816.81
2023-04-12T01:12:42.314Z,93812.94
2023-04-12T01:13:52.832Z,93813.19
2023-04-12T01:14:55.932Z,93816.41
2023-04-12T01:16:12.809Z,93806.13
2023-04-12T01:17:17.977Z,93781.94
2023-04-12T01:18:22.219Z,93800.84
2023-04-12T01:19:28.662Z,93808.22
2023-04-12T01:20:31.766Z,93793.59
2023-04-12T01:21:42.550Z,93785.06
2023-04-12T01:23:14.596Z,93804.13
2023-04-12T01:24:20.102Z,93800.38
2023-04-12T01:25:30.721Z,93754.75
2023-04-12T01:26:46.357Z,93798.63
2023-04-12T01:27:47.497Z,93783.50
2023-04-12T01:28:46.167Z,93733.16
2023-04-12T01:29:49.924Z,93805.81
2023-04-12T01:30:51.576Z,93789.69
2023-04-12T01:31:57.968Z,93748.25
2023-04-12T01:32:58.577Z,93744.88
2023-04-12T01:33:59.368Z,93808.44
2023-04-12T01:34:59.835Z,93808.81
2023-04-12T01:35:59.657Z,93779.44
2023-04-12T01:36:58.873Z,93805.06
2023-04-12T01:37:57.925Z,93779.16
2023-04-12T01:38:56.213Z,93806.44
2023-04-12T01:39:53.083Z,93790.22
2023-04-12T01:40:49.992Z,93766.31
2023-04-12T01:41:49.122Z,93750.72
2023-04-12T01:42:46.245Z,93791.72
2023-04-12T01:43:44.553Z,93815.94
2023-04-12T01:44:41.621Z,93771.38
2023-04-12T01:45:39.057Z,93798.22
2023-04-12T01:46:37.508Z,93803.47
2023-04-12T01:47:34.969Z,93751.47
2023-04-12T01:48:32.579Z,93803.72
2023-04-12T01:49:39.956Z,93803.50
2023-04-12T01:51:05.352Z,93799.47
2023-04-12T01:52:12.181Z,93790.47
2023-04-12T01:53:17.346Z,93754.03
2023-04-12T01:54:31.527Z,93795.03
2023-04-12T01:55:31.538Z,93791.53
2023-04-12T01:56:34.334Z,93792.00
2023-04-12T01:57:31.990Z,93788.06
2023-04-12T01:58:30.202Z,93775.69
2023-04-12T01:59:31.738Z,93789.47
2023-04-12T02:00:30.984Z,93771.94
2023-04-12T02:01:29.426Z,93789.56
2023-04-12T02:02:27.199Z,93754.69
2023-04-12T02:03:25.042Z,93791.13
2023-04-12T02:04:25.439Z,93775.31
2023-04-12T02:05:22.789Z,93773.28
2023-04-12T02:06:21.025Z,93796.25
2023-04-12T02:07:21.513Z,93786.38
2023-04-12T02:08:18.372Z,93781.41
2023-04-12T02:09:16.130Z,93784.53
2023-04-12T02:10:16.051Z,93763.03
2023-04-12T02:11:14.794Z,93773.47
2023-04-12T02:12:12.803Z,93714.78
2023-04-12T02:13:09.647Z,93784.53
2023-04-12T02:14:06.421Z,93748.78
2023-04-12T02:15:04.236Z,93749.25
2023-04-12T02:16:02.413Z,93788.34
2023-04-12T02:17:02.376Z,93769.63
2023-04-12T02:17:59.711Z,93733.19
2023-04-12T02:18:57.478Z,93756.50
2023-04-12T02:19:54.311Z,93785.78
2023-04-12T02:20:51.193Z,93757.00
2023-04-12T02:21:47.953Z,93785.38
2023-04-12T02:22:44.700Z,93778.00
2023-04-12T02:23:44.013Z,93786.75
2023-04-12T02:24:40.752Z,93753.88
2023-04-12T02:25:38.660Z,93729.00
2023-04-12T02:26:36.337Z,93777.28
2023-04-12T02:27:33.083Z,93792.72
2023-04-12T02:28:29.965Z,93793.06
2023-04-12T02:29:27.435Z,93787.94
2023-04-12T02:30:24.380Z,93755.56
2023-04-12T02:31:21.269Z,93731.63
2023-04-12T02:32:18.193Z,93698.81
2023-04-12T02:33:15.833Z,93750.66
2023-04-12T02:34:13.479Z,93785.63
2023-04-12T02:35:12.134Z,93784.63
2023-04-12T02:36:10.913Z,93777.13
2023-04-12T02:37:08.917Z,93718.06
2023-04-12T02:38:08.662Z,93777.91
2023-04-12T02:39:05.531Z,93656.66
2023-04-12T02:40:11.538Z,93782.66
2023-04-12T02:41:08.288Z,93728.16
2023-04-12T02:42:05.111Z,93718.38
2023-04-12T02:43:01.830Z,93774.31
2023-04-12T02:43:58.695Z,93766.81
2023-04-12T02:44:55.600Z,93720.28
2023-04-12T02:45:52.430Z,93752.06
2023-04-12T02:46:49.340Z,93769.13
2023-04-12T02:47:46.163Z,93743.91
2023-04-12T02:48:42.947Z,93764.47
2023-04-12T02:49:40.107Z,93767.56
2023-04-12T02:50:38.196Z,93768.81
2023-04-12T02:51:35.323Z,93739.03
2023-04-12T02:52:33.115Z,93748.91
2023-04-12T02:53:29.801Z,93760.16
2023-04-12T02:54:27.142Z,93771.94
2023-04-12T02:55:23.943Z,93748.28
2023-04-12T02:56:21.776Z,93766.34
2023-04-12T02:57:18.600Z,93717.59
2023-04-12T02:58:15.326Z,93763.16
2023-04-12T02:59:12.063Z,93766.50
2023-04-12T03:00:12.282Z,93763.06
2023-04-12T03:01:09.248Z,93760.22
2023-04-12T03:02:06.261Z,93680.50
2023-04-12T03:03:03.793Z,93728.44
2023-04-12T03:04:02.310Z,93711.72
2023-04-12T03:04:59.291Z,93698.66
2023-04-12T03:05:56.004Z,93643.72
2023-04-12T03:06:53.782Z,93708.69
2023-04-12T03:07:50.590Z,93732.97
2023-04-12T03:08:48.021Z,93769.31
2023-04-12T03:09:46.311Z,93755.03
2023-04-12T03:10:43.055Z,93699.44
2023-04-12T03:11:39.799Z,93761.75
2023-04-12T03:12:36.542Z,93726.44
2023-04-12T03:13:33.269Z,93753.78
2023-04-12T03:14:30.057Z,93758.84
2023-04-12T03:15:28.215Z,93764.59
2023-04-12T03:16:29.678Z,93746.94
2023-04-12T03:17:26.565Z,93769.13
2023-04-12T03:18:23.592Z,93738.00
2023-04-12T03:19:20.415Z,93758.38
2023-04-12T03:20:17.289Z,93707.41
2023-04-12T03:21:14.057Z,93769.03
2023-04-12T03:22:11.020Z,93772.41
2023-04-12T03:23:07.768Z,93775.13
2023-04-12T03:24:04.767Z,93656.44
2023-04-12T03:25:01.589Z,93704.94
2023-04-12T03:25:58.448Z,93736.19
2023-04-12T03:26:55.329Z,93778.53
2023-04-12T03:27:52.797Z,93783.66
2023-04-12T03:28:49.609Z,93757.84
2023-04-12T03:29:46.537Z,93777.44
2023-04-12T03:30:43.419Z,93744.38
2023-04-12T03:31:40.540Z,93779.09
2023-04-12T03:32:39.112Z,93698.00
2023-04-12T03:33:36.036Z,93731.09
2023-04-12T03:34:32.765Z,93777.81
2023-04-12T03:35:29.592Z,93780.56
2023-04-12T03:36:27.305Z,93771.63
2023-04-12T03:37:24.678Z,93751.97
2023-04-12T03:38:21.459Z,93766.91
2023-04-12T03:39:18.347Z,93785.16
2023-04-12T03:40:15.207Z,93786.88
2023-04-12T03:41:12.099Z,93792.16
2023-04-12T03:42:13.577Z,93735.56
2023-04-12T03:43:18.741Z,93700.28
2023-04-12T03:44:15.822Z,93794.03
2023-04-12T03:45:12.573Z,93795.59
2023-04-12T03:46:09.540Z,93786.81
2023-04-12T03:47:06.344Z,93797.25
2023-04-12T03:48:03.518Z,93790.25
2023-04-12T03:49:00.569Z,93758.13
2023-04-12T03:51:08.043Z,93792.56
2023-04-12T03:52:07.301Z,93787.84
2023-04-12T03:53:04.043Z,93748.53
2023-04-12T03:54:02.856Z,93790.25
2023-04-12T03:55:00.349Z,93734.00
2023-04-12T03:55:57.209Z,93796.84
2023-04-12T03:56:54.059Z,93782.78
2023-04-12T03:57:50.993Z,93743.94
2023-04-12T03:58:48.143Z,93795.53
2023-04-12T03:59:44.971Z,93795.34
2023-04-12T04:00:42.546Z,93738.88
2023-04-12T04:01:39.379Z,93794.72
2023-04-12T04:02:36.766Z,93727.00
2023-04-12T04:03:35.197Z,93792.94
2023-04-12T04:04:32.255Z,93759.41
2023-04-12T04:05:30.697Z,93752.06
2023-04-12T04:06:27.792Z,93799.13
2023-04-12T04:07:24.644Z,93788.50
2023-04-12T04:08:22.068Z,93784.47
2023-04-12T04:09:19.074Z,93805.06
2023-04-12T04:10:16.072Z,93738.81
2023-04-12T04:11:13.817Z,93782.59
2023-04-12T04:12:10.671Z,93789.13
2023-04-12T04:13:07.643Z,93796.25
2023-04-12T04:14:04.393Z,93764.59
2023-04-12T04:15:01.215Z,93809.63
2023-04-12T04:16:04.904Z,93811.44
2023-04-12T04:17:01.794Z,93818.16
2023-04-12T04:17:58.886Z,93822.91
2023-04-12T04:18:56.016Z,93801.72
2023-04-12T04:19:52.901Z,93819.88
2023-04-12T04:20:49.687Z,93821.00
2023-04-12T04:21:46.413Z,93828.16
2023-04-12T04:22:44.738Z,93762.25
2023-04-12T04:23:44.860Z,93826.44
2023-04-12T04:24:42.753Z,93819.25
2023-04-12T04:25:40.059Z,93824.22
2023-04-12T04:26:38.452Z,93797.13
2023-04-12T04:27:38.340Z,93825.31
2023-04-12T04:28:37.314Z,93827.66
2023-04-12T04:29:34.094Z,93830.16
2023-04-12T04:30:34.119Z,93822.09
2023-04-12T04:31:34.743Z,93801.50
2023-04-12T04:32:34.894Z,93822.28
2023-04-12T04:33:32.746Z,93812.41
2023-04-12T04:34:29.575Z,93742.34
2023-04-12T04:35:27.253Z,93800.94
2023-04-12T04:36:24.132Z,93736.00
2023-04-12T04:37:21.310Z,93822.88
2023-04-12T04:38:18.713Z,93837.53
2023-04-12T04:39:15.877Z,93770.03
2023-04-12T04:40:12.684Z,93845.78
2023-04-12T04:41:10.398Z,93838.94
2023-04-12T04:42:07.248Z,93843.69
2023-04-12T04:43:05.847Z,93819.09
2023-04-12T04:44:09.657Z,93844.34
2023-04-12T04:45:13.694Z,93800.00
2023-04-12T04:46:10.774Z,93846.00
2023-04-12T04:47:08.735Z,93820.09
2023-04-12T04:48:05.947Z,93844.84
2023-04-12T04:49:03.064Z,93757.34
2023-04-12T04:50:00.401Z,93853.47
2023-04-12T04:50:57.436Z,93790.16
2023-04-12T04:51:54.523Z,93853.09
2023-04-12T04:52:51.311Z,93758.38
2023-04-12T04:53:48.138Z,93850.00
2023-04-12T04:54:45.210Z,93818.94
2023-04-12T04:55:41.997Z,93849.09
2023-04-12T04:56:38.741Z,93860.53
2023-04-12T04:57:35.565Z,93753.97
2023-04-12T04:58:32.627Z,93841.53
2023-04-12T04:59:29.438Z,93856.00
2023-04-12T05:00:26.240Z,93840.19
2023-04-12T05:01:26.216Z,93862.28
2023-04-12T05:02:23.271Z,93855.44
2023-04-12T05:03:20.249Z,93863.88
2023-04-12T05:04:17.090Z,93871.03
2023-04-12T05:05:14.028Z,93822.69
2023-04-12T05:06:11.786Z,93835.75
2023-04-12T05:07:08.621Z,93846.69
2023-04-12T05:08:05.702Z,93869.88
2023-04-12T05:09:02.609Z,93790.34
2023-04-12T05:09:59.506Z,93859.09
2023-04-12T05:10:57.830Z,93811.72
2023-04-12T05:11:54.638Z,93874.59
2023-04-12T05:12:51.390Z,93630.41
2023-04-12T05:13:48.282Z,93872.41
2023-04-12T05:14:47.994Z,93874.31
2023-04-12T05:15:49.009Z,93839.50
2023-04-12T05:16:45.774Z,93846.38
2023-04-12T05:17:42.713Z,93875.03
2023-04-12T05:18:39.494Z,93873.84
2023-04-12T05:19:36.307Z,93857.88
2023-04-12T05:20:33.106Z,93848.78
2023-04-12T05:21:29.837Z,93870.00
2023-04-12T05:22:29.540Z,93858.72
2023-04-12T05:23:27.445Z,93868.84
2023-04-12T05:24:24.336Z,93866.97
2023-04-12T05:25:21.175Z,93837.56
2023-04-12T05:26:18.980Z,93794.56
2023-04-12T05:27:19.066Z,93868.28
2023-04-12T05:28:17.544Z,93867.50
2023-04-12T05:29:14.375Z,93863.94
2023-04-12T05:30:11.624Z,93865.47
2023-04-12T05:31:08.598Z,93773.09
2023-04-12T05:32:05.530Z,93874.53
2023-04-12T05:33:02.295Z,93865.56
2023-04-12T05:33:59.195Z,93864.75
2023-04-12T05:34:56.199Z,93876.75
2023-04-12T05:35:52.976Z,93841.66
2023-04-12T05:36:49.756Z,93848.88
2023-04-12T05:37:46.558Z,93824.91
2023-04-12T05:38:43.538Z,93821.66
2023-04-12T05:39:40.470Z,93864.44
2023-04-12T05:40:37.320Z,93865.16
2023-04-12T05:41:34.176Z,93867.78
2023-04-12T05:42:31.462Z,93823.78
2023-04-12T05:43:28.152Z,93852.88
2023-04-12T05:44:24.989Z,93833.22
2023-04-12T05:45:21.728Z,93861.63
2023-04-12T05:46:18.505Z,93863.13
2023-04-12T05:47:15.611Z,93854.38
2023-04-12T05:48:12.490Z,93836.00
2023-04-12T05:49:09.211Z,93864.34
2023-04-12T05:50:07.564Z,93855.41
2023-04-12T05:51:05.392Z,93861.66
2023-04-12T05:52:03.225Z,93820.75
2023-04-12T05:53:03.483Z,93862.09
2023-04-12T05:54:01.360Z,93864.00
2023-04-12T05:54:58.148Z,93837.97
2023-04-12T05:55:55.289Z,93867.06
2023-04-12T05:56:55.446Z,93828.91
2023-04-12T05:57:52.426Z,93865.75
2023-04-12T05:58:49.192Z,93859.22
2023-04-12T05:59:46.020Z,93873.59
2023-04-12T06:00:43.075Z,93808.72
2023-04-12T06:01:42.700Z,93876.22
2023-04-12T06:02:40.699Z,93841.16
2023-04-12T06:03:41.669Z,93798.25
2023-04-12T06:04:50.103Z,93886.00
2023-04-12T06:05:47.874Z,93889.28
2023-04-12T06:06:44.762Z,93896.06
2023-04-12T06:07:48.459Z,93829.19
2023-04-12T06:08:45.516Z,93899.88
2023-04-12T06:09:43.059Z,93905.41
2023-04-12T06:10:39.792Z,93906.38
2023-04-12T06:11:39.059Z,93898.34
2023-04-12T06:12:35.927Z,93900.16
2023-04-12T06:13:32.694Z,93901.31
2023-04-12T06:14:29.490Z,93905.25
2023-04-12T06:15:26.397Z,93908.59
2023-04-12T06:16:23.240Z,93908.31
2023-04-12T06:17:20.252Z,93889.88
2023-04-12T06:18:17.121Z,93913.72
2023-04-12T06:19:13.934Z,93912.31
2023-04-12T06:20:11.418Z,93913.03
2023-04-12T06:21:08.649Z,93908.75
2023-04-12T06:22:05.524Z,93905.94
2023-04-12T06:23:02.505Z,93905.66
2023-04-12T06:23:59.293Z,93874.84
2023-04-12T06:24:56.077Z,93900.69
2023-04-12T06:25:53.451Z,93877.53
2023-04-12T06:26:50.151Z,93876.66
2023-04-12T06:27:46.866Z,93901.53
2023-04-12T06:28:43.650Z,93889.53
2023-04-12T06:29:40.438Z,93895.72
2023-04-12T06:30:37.953Z,93843.63
2023-04-12T06:31:34.955Z,93862.09
2023-04-12T06:32:32.010Z,93872.16
2023-04-12T06:33:28.838Z,93889.97
2023-04-12T06:34:25.819Z,93887.94
2023-04-12T06:35:22.756Z,93901.63
2023-04-12T06:36:19.508Z,93889.13
2023-04-12T06:37:16.427Z,93879.19
2023-04-12T06:38:13.188Z,93878.63
2023-04-12T06:39:12.110Z,93886.69
2023-04-12T06:40:09.476Z,93864.69
2023-04-12T06:41:07.081Z,93886.38
2023-04-12T06:42:03.921Z,93863.00
2023-04-12T06:43:00.841Z,93878.06
2023-04-12T06:43:57.687Z,93885.09
2023-04-12T06:44:54.501Z,93850.38
2023-04-12T06:45:51.437Z,93877.53
2023-04-12T06:46:48.430Z,93877.97
2023-04-12T06:47:45.375Z,93847.03
2023-04-12T06:48:42.168Z,93875.09
2023-04-12T06:49:39.239Z,93822.41
2023-04-12T06:50:36.139Z,93830.56
2023-04-12T06:51:35.546Z,93843.75
2023-04-12T06:52:32.628Z,93764.72
2023-04-12T06:53:30.899Z,93878.00
2023-04-12T06:54:27.616Z,93885.56
2023-04-12T06:55:24.472Z,93760.19
2023-04-12T06:56:21.158Z,93878.38
2023-04-12T06:57:18.516Z,93873.03
2023-04-12T06:58:15.384Z,93826.56
2023-04-12T06:59:12.113Z,93874.06
2023-04-12T07:00:09.554Z,93845.06
2023-04-12T07:01:10.529Z,93879.47
2023-04-12T07:02:07.892Z,93844.66
2023-04-12T07:03:04.817Z,93872.78
2023-04-12T07:04:01.946Z,93869.78
2023-04-12T07:04:58.846Z,93836.13
2023-04-12T07:05:56.477Z,93844.28
2023-04-12T07:06:53.272Z,93870.50
2023-04-12T07:07:50.132Z,93828.41
2023-04-12T07:08:46.965Z,93867.38
2023-04-12T07:09:43.806Z,93812.88
2023-04-12T07:10:40.551Z,93883.31
2023-04-12T07:11:37.334Z,93871.66
2023-04-12T07:12:34.373Z,93854.03
2023-04-12T07:13:31.228Z,93876.88
2023-04-12T07:14:28.597Z,93871.63
2023-04-12T07:15:25.423Z,93826.72
2023-04-12T07:16:22.298Z,93808.16
2023-04-12T07:17:21.166Z,93886.28
2023-04-12T07:18:18.027Z,93843.44
2023-04-12T07:19:14.789Z,93868.59
2023-04-12T07:20:12.131Z,93783.72
2023-04-12T07:21:08.902Z,93879.66
2023-04-12T07:22:05.705Z,93878.53
2023-04-12T07:23:02.528Z,93891.88
2023-04-12T07:23:59.273Z,93888.91
2023-04-12T07:24:56.107Z,93860.53
2023-04-12T07:25:52.888Z,93829.13
2023-04-12T07:26:49.671Z,93878.81
2023-04-12T07:27:46.595Z,93873.44
2023-04-12T07:28:43.360Z,93875.97
2023-04-12T07:29:40.130Z,93812.94
2023-04-12T07:30:39.711Z,93804.03
2023-04-12T07:31:36.665Z,93857.34
2023-04-12T07:32:33.502Z,93869.94
2023-04-12T07:33:30.844Z,93865.63
2023-04-12T07:34:27.826Z,93822.06
2023-04-12T07:35:24.747Z,93872.75
2023-04-12T07:36:22.129Z,93852.94
2023-04-12T07:37:19.105Z,93861.56
2023-04-12T07:38:17.002Z,93862.06
2023-04-12T07:39:14.452Z,93859.50
2023-04-12T07:40:11.322Z,93844.53
2023-04-12T07:41:08.518Z,93854.44
2023-04-12T07:42:05.302Z,93796.16
2023-04-12T07:43:02.234Z,93863.72
2023-04-12T07:43:59.113Z,93860.97
2023-04-12T07:44:55.972Z,93820.31
2023-04-12T07:45:55.628Z,93864.72
2023-04-12T07:46:52.441Z,93860.09
2023-04-12T07:47:49.290Z,93793.53
2023-04-12T07:48:46.280Z,93858.69
2023-04-12T07:49:43.228Z,93759.38
2023-04-12T07:50:40.337Z,93859.59
2023-04-12T07:51:37.765Z,93796.81
2023-04-12T07:52:34.624Z,93852.41
2023-04-12T07:53:31.513Z,93857.19
2023-04-12T07:54:29.177Z,93759.06
2023-04-12T07:55:26.012Z,93858.97
2023-04-12T07:56:22.877Z,93856.44
2023-04-12T07:57:19.583Z,93837.63
2023-04-12T07:58:17.383Z,93838.34
2023-04-12T07:59:14.149Z,93844.44
2023-04-12T08:00:11.611Z,93818.38
2023-04-12T08:01:08.433Z,93842.97
2023-04-12T08:02:06.394Z,93753.56
2023-04-12T08:03:03.387Z,93831.81
2023-04-12T08:04:00.707Z,93843.28
2023-04-12T08:04:58.008Z,93842.38
2023-04-12T08:05:54.783Z,93807.09
2023-04-12T08:06:52.195Z,93832.66
2023-04-12T08:07:48.880Z,93814.31
2023-04-12T08:08:45.648Z,93839.34
2023-04-12T08:09:42.438Z,93825.22
2023-04-12T08:10:40.043Z,93838.09
2023-04-12T08:11:36.811Z,93824.00
2023-04-12T08:12:33.679Z,93839.97
2023-04-12T08:13:30.492Z,93822.09
2023-04-12T08:14:27.277Z,93837.09
2023-04-12T08:15:25.054Z,93853.53
2023-04-12T08:16:22.055Z,93845.78
2023-04-12T08:17:18.941Z,93807.56
2023-04-12T08:18:15.884Z,93840.50
2023-04-12T08:19:12.714Z,93839.88
2023-04-12T08:20:10.050Z,93824.59
2023-04-12T08:21:06.833Z,93809.66
2023-04-12T08:22:03.724Z,93778.22
2023-04-12T08:23:00.648Z,93789.97
2023-04-12T08:23:57.869Z,93843.78
2023-04-12T08:24:54.778Z,93777.34
2023-04-12T08:25:53.440Z,93822.25
2023-04-12T08:26:53.261Z,93797.94
2023-04-12T08:27:51.429Z,93841.06
2023-04-12T08:28:48.735Z,93814.66
2023-04-12T08:29:45.708Z,93792.50
2023-04-12T08:30:43.445Z,93813.44
2023-04-12T08:31:40.439Z,93825.09
2023-04-12T08:32:38.040Z,93808.66
2023-04-12T08:33:34.801Z,93849.38
2023-04-12T08:34:33.122Z,93828.94
2023-04-12T08:35:29.962Z,93824.81
2023-04-12T08:36:27.386Z,93833.56
2023-04-12T08:37:24.267Z,93833.31
2023-04-12T08:38:30.686Z,93812.91
2023-04-12T08:39:34.373Z,93813.28
2023-04-12T08:40:31.254Z,93746.31
2023-04-12T08:41:28.368Z,93825.25
2023-04-12T08:42:25.424Z,93786.56
2023-04-12T08:43:24.696Z,93829.41
2023-04-12T08:44:39.909Z,93823.84
2023-04-12T08:45:38.123Z,93816.16
2023-04-12T08:46:36.613Z,93740.38
2023-04-12T08:47:39.084Z,93817.00
2023-04-12T08:48:37.121Z,93798.31
2023-04-12T08:49:35.303Z,93821.66
2023-04-12T08:50:32.973Z,93804.97
2023-04-12T08:51:32.837Z,93818.69
2023-04-12T08:52:33.802Z,93813.78
2023-04-12T08:53:31.806Z,93816.03
2023-04-12T08:54:29.148Z,93816.47
2023-04-12T08:55:25.999Z,93809.50
2023-04-12T08:56:23.787Z,93813.78
2023-04-12T08:57:21.020Z,93765.34
2023-04-12T08:58:18.206Z,93813.91
2023-04-12T08:59:15.117Z,93811.06
2023-04-12T09:00:14.665Z,93793.25
2023-04-12T09:01:15.798Z,93829.03
2023-04-12T09:02:16.454Z,93792.50
2023-04-12T09:03:13.428Z,93798.38
2023-04-12T09:04:10.774Z,93798.38
2023-04-12T09:05:09.832Z,93764.47
2023-04-12T09:06:07.299Z,93810.41
2023-04-12T09:07:06.847Z,93803.88
2023-04-12T09:08:04.582Z,93798.59
2023-04-12T09:09:08.093Z,93798.44
2023-04-12T09:10:06.079Z,93763.56
2023-04-12T09:11:20.996Z,93809.38
2023-04-12T09:12:20.497Z,93773.28
2023-04-12T09:13:17.281Z,93776.41
2023-04-12T09:14:29.459Z,93750.16
2023-04-12T09:15:26.272Z,93740.56
2023-04-12T09:16:37.316Z,93668.19
2023-04-12T09:17:36.734Z,93801.34
2023-04-12T09:18:49.360Z,93788.69
2023-04-12T09:19:46.177Z,93792.72
2023-04-12T09:20:42.897Z,93786.91
2023-04-12T09:21:53.656Z,93788.16
2023-04-12T09:22:50.548Z,93784.06
2023-04-12T09:24:06.231Z,93747.31
2023-04-12T09:25:03.402Z,93777.97
2023-04-12T09:26:00.293Z,93722.66
2023-04-12T09:27:04.040Z,93775.06
2023-04-12T09:28:00.822Z,93726.94
2023-04-12T09:28:57.981Z,93750.16
2023-04-12T09:30:07.951Z,93767.25
2023-04-12T09:31:04.997Z,93749.19
2023-04-12T09:32:04.890Z,93759.81
2023-04-12T09:33:11.829Z,93767.31
2023-04-12T09:34:09.543Z,93765.38
2023-04-12T09:35:07.677Z,93751.56
2023-04-12T09:36:06.987Z,93729.28
2023-04-12T09:37:17.186Z,93739.03
2023-04-12T09:38:15.081Z,93761.00
2023-04-12T09:39:11.806Z,93761.28
2023-04-12T09:40:13.325Z,93746.19
2023-04-12T09:41:26.380Z,93749.38
2023-04-12T09:42:33.450Z,93759.47
2023-04-12T09:43:40.568Z,93761.13
2023-04-12T09:44:38.252Z,93763.00
2023-04-12T09:45:39.047Z,93747.38
2023-04-12T09:46:36.696Z,93709.28
2023-04-12T09:47:41.304Z,93730.91
2023-04-12T09:48:43.009Z,93742.06
2023-04-12T09:49:41.978Z,93718.19
2023-04-12T09:50:39.219Z,93763.25
2023-04-12T09:51:36.776Z,93651.31
2023-04-12T09:52:41.198Z,93641.19
2023-04-12T09:53:46.449Z,93723.00
2023-04-12T09:54:50.198Z,93750.03
2023-04-12T09:55:50.834Z,93679.69
2023-04-12T09:56:48.913Z,93759.25
2023-04-12T09:57:46.253Z,93741.31
2023-04-12T09:58:45.651Z,93755.22
2023-04-12T09:59:48.543Z,93714.22
2023-04-12T10:00:47.583Z,93648.50
2023-04-12T10:01:45.128Z,93737.84
2023-04-12T10:02:45.040Z,93687.31
2023-04-12T10:03:43.462Z,93733.34
2023-04-12T10:04:41.975Z,93743.56
2023-04-12T10:05:41.149Z,93745.66
2023-04-12T10:06:38.013Z,93731.94
2023-04-12T10:07:41.905Z,93747.78
2023-04-12T10:08:39.269Z,93741.66
2023-04-12T10:09:39.985Z,93734.56
2023-04-12T10:10:36.832Z,93726.38
2023-04-12T10:11:34.426Z,93725.94
2023-04-12T10:12:32.103Z,93639.38
2023-04-12T10:13:32.064Z,93619.25
2023-04-12T10:14:29.933Z,93741.28
2023-04-12T10:15:29.608Z,93722.72
2023-04-12T10:16:27.263Z,93636.72
2023-04-12T10:17:26.529Z,93748.16
2023-04-12T10:18:24.118Z,93750.97
2023-04-12T10:19:29.175Z,93750.78
2023-04-12T10:20:29.266Z,93746.13
2023-04-12T10:21:26.934Z,93729.31
2023-04-12T10:22:23.763Z,93740.44
2023-04-12T10:23:20.658Z,93722.06
2023-04-12T10:24:17.926Z,93741.97
2023-04-12T10:25:17.315Z,93666.22
2023-04-12T10:26:17.112Z,93703.69
2023-04-12T10:27:15.517Z,93713.47
2023-04-12T10:28:21.844Z,93737.03
2023-04-12T10:29:25.400Z,93734.47
2023-04-12T10:30:32.391Z,93711.16
2023-04-12T10:31:30.974Z,93703.28
2023-04-12T10:32:28.046Z,93681.03
2023-04-12T10:33:33.060Z,93724.69
2023-04-12T10:34:31.340Z,93735.22
2023-04-12T10:35:28.459Z,93725.19
2023-04-12T10:36:59.990Z,93729.09
2023-04-12T10:38:06.287Z,93732.41
2023-04-12T10:39:11.200Z,93688.72
2023-04-12T10:40:17.384Z,93732.09
2023-04-12T10:41:15.559Z,93737.69
2023-04-12T10:42:25.623Z,93741.97
2023-04-12T10:43:22.481Z,93748.84
2023-04-12T10:44:26.861Z,93692.81
2023-04-12T10:45:23.541Z,93729.69
2023-04-12T10:46:39.119Z,93735.84
2023-04-12T10:47:48.828Z,93745.94
2023-04-12T10:48:53.459Z,93729.25
2023-04-12T10:50:24.602Z,93735.13
2023-04-12T10:51:25.566Z,93647.31
2023-04-12T10:52:22.388Z,93694.09
2023-04-12T10:53:25.484Z,93744.31
2023-04-12T10:54:22.247Z,93750.19
2023-04-12T10:55:30.137Z,93734.03
2023-04-12T10:56:32.102Z,93733.47
2023-04-12T10:57:45.533Z,93726.34
2023-04-12T10:58:48.175Z,93739.31
2023-04-12T10:59:56.642Z,93732.44
2023-04-12T11:02:13.224Z,93730.09
2023-04-12T11:03:13.096Z,93721.88
2023-04-12T11:04:20.333Z,93700.72
2023-04-12T11:05:19.347Z,93735.88
2023-04-12T11:06:26.941Z,93686.94
2023-04-12T11:07:40.954Z,93712.13
2023-04-12T11:08:41.026Z,93730.59
2023-04-12T11:09:43.432Z,93732.69
2023-04-12T11:10:41.483Z,93622.91
2023-04-12T11:11:41.773Z,93684.59
2023-04-12T11:12:39.045Z,93706.31
2023-04-12T11:13:36.905Z,93718.47
2023-04-12T11:14:51.265Z,93703.41
2023-04-12T11:15:54.924Z,93716.91
2023-04-12T11:17:06.845Z,93708.47
2023-04-12T11:18:07.054Z,93721.41
2023-04-12T11:19:03.998Z,93708.66
2023-04-12T11:20:01.876Z,93593.31
2023-04-12T11:20:59.309Z,93715.00
2023-04-12T11:21:57.035Z,93716.91
2023-04-12T11:22:54.027Z,93715.31
2023-04-12T11:23:52.958Z,93710.00
2023-04-12T11:25:09.342Z,93688.78
2023-04-12T11:26:06.235Z,93713.16
2023-04-12T11:27:03.479Z,93681.66
2023-04-12T11:28:00.957Z,93686.69
2023-04-12T11:28:59.361Z,93711.56
2023-04-12T11:29:58.969Z,93702.56
2023-04-12T11:30:59.022Z,93711.09
2023-04-12T11:31:56.362Z,93726.34
2023-04-12T11:32:53.212Z,93660.75
2023-04-12T11:33:50.038Z,93712.38
2023-04-12T11:34:49.921Z,93669.25
2023-04-12T11:35:46.693Z,93718.16
2023-04-12T11:36:46.013Z,93581.16